createdAt,value
2023-04-21T00:00:59.892Z,101547.19
2023-04-21T00:03:28.501Z,101533.25
2023-04-21T00:05:58.771Z,101530.53
2023-04-21T00:08:28.372Z,101527.78
2023-04-21T00:10:55.415Z,101519.06
2023-04-21T00:13:23.891Z,101526.94
2023-04-21T00:15:51.246Z,101529.47
2023-04-21T00:18:18.592Z,101524.94
2023-04-21T00:20:45.639Z,101521.38
2023-04-21T00:23:12.704Z,101519.66
2023-04-21T00:25:39.782Z,101510.94
2023-04-21T00:28:06.827Z,101510.84
2023-04-21T00:30:33.816Z,101511.69
2023-04-21T00:33:00.967Z,101513.41
2023-04-21T00:35:28.074Z,101510.72
2023-04-21T00:37:55.049Z,101502.84
2023-04-21T00:40:22.684Z,101504.47
2023-04-21T00:42:49.737Z,101507.91
2023-04-21T00:45:16.878Z,101499.31
2023-04-21T00:47:44.090Z,101498.56
2023-04-21T00:50:12.185Z,101500.44
2023-04-21T00:52:40.770Z,101494.28
2023-04-21T00:55:08.238Z,101494.28
2023-04-21T00:57:37.953Z,101493.34
2023-04-21T01:00:06.235Z,101485.47
2023-04-21T01:02:35.897Z,101485.47
2023-04-21T01:05:09.154Z,101480.19
2023-04-21T01:07:36.345Z,101471.59
2023-04-21T01:10:04.123Z,101468.19
2023-04-21T01:12:31.241Z,101478.69
2023-04-21T01:14:58.765Z,101460.53
2023-04-21T01:17:26.904Z,101460.63
2023-04-21T01:19:56.576Z,101457.03
2023-04-21T01:22:23.803Z,101464.06
2023-04-21T01:24:52.484Z,101458.91
2023-04-21T01:27:20.815Z,101452.88
2023-04-21T01:29:52.654Z,101463.31
2023-04-21T01:32:23.928Z,101454.81
2023-04-21T01:34:52.791Z,101453.13
2023-04-21T01:37:23.847Z,101447.06
2023-04-21T01:39:57.013Z,101453.66
2023-04-21T01:42:26.312Z,101433.66
2023-04-21T01:44:54.553Z,101434.44
2023-04-21T01:47:22.992Z,101437.28
2023-04-21T01:49:50.389Z,101433.66
2023-04-21T01:52:17.473Z,101424.84
2023-04-21T01:54:44.793Z,101415.09
2023-04-21T01:57:11.905Z,101428.78
2023-04-21T01:59:39.138Z,101433.94
2023-04-21T02:02:06.409Z,101421.78
2023-04-21T02:04:34.126Z,101427.13
2023-04-21T02:07:01.833Z,101429.69
2023-04-21T02:09:29.234Z,101436.47
2023-04-21T02:11:57.220Z,101434.91
2023-04-21T02:14:25.951Z,101429.69
2023-04-21T02:16:56.064Z,101443.75
2023-04-21T02:19:24.486Z,101437.81
2023-04-21T02:21:51.585Z,101429.31
2023-04-21T02:24:18.984Z,101433.66
2023-04-21T02:26:46.311Z,101429.38
2023-04-21T02:29:13.797Z,101420.03
2023-04-21T02:31:56.505Z,101423.50
2023-04-21T02:34:24.691Z,101421.75
2023-04-21T02:36:52.552Z,101428.72
2023-04-21T02:39:20.050Z,101418.19
2023-04-21T02:41:47.249Z,101426.94
2023-04-21T02:44:14.293Z,101436.41
2023-04-21T02:46:41.846Z,101435.50
2023-04-21T02:49:10.217Z,101423.34
2023-04-21T02:51:37.340Z,101432.03
2023-04-21T02:54:05.517Z,101421.53
2023-04-21T02:56:34.516Z,101423.56
2023-04-21T02:59:01.638Z,101415.00
2023-04-21T03:01:28.666Z,101403.03
2023-04-21T03:03:55.853Z,101399.53
2023-04-21T03:06:23.763Z,101418.28
2023-04-21T03:08:50.820Z,101424.16
2023-04-21T03:11:17.834Z,101415.59
2023-04-21T03:13:44.843Z,101416.53
2023-04-21T03:16:11.938Z,101429.56
2023-04-21T03:18:39.005Z,101421.91
2023-04-21T03:21:06.097Z,101417.69
2023-04-21T03:23:33.165Z,101409.97
2023-04-21T03:26:00.200Z,101404.72
2023-04-21T03:28:27.302Z,101370.16
2023-04-21T03:30:54.391Z,101391.63
2023-04-21T03:33:21.774Z,101417.34
2023-04-21T03:35:49.186Z,101412.19
2023-04-21T03:38:16.224Z,101398.38
2023-04-21T03:40:43.321Z,101402.59
2023-04-21T03:43:10.496Z,101399.22
2023-04-21T03:45:37.602Z,101400.78
2023-04-21T03:48:05.199Z,101395.66
2023-04-21T03:50:32.326Z,101392.38
2023-04-21T03:52:59.395Z,101382.94
2023-04-21T03:55:26.482Z,101381.28
2023-04-21T03:57:53.982Z,101380.31
2023-04-21T04:00:21.290Z,101368.09
2023-04-21T04:02:48.514Z,101377.69
2023-04-21T04:05:15.743Z,101377.72
2023-04-21T04:07:42.850Z,101378.88
2023-04-21T04:10:10.131Z,101374.41
2023-04-21T04:12:37.254Z,101382.41
2023-04-21T04:15:04.879Z,101385.06
2023-04-21T04:17:32.011Z,101373.09
2023-04-21T04:19:59.003Z,101361.88
2023-04-21T04:22:26.099Z,101359.19
2023-04-21T04:24:53.869Z,101368.69
2023-04-21T04:27:20.978Z,101373.84
2023-04-21T04:29:49.322Z,101378.19
2023-04-21T04:32:16.602Z,101379.00
2023-04-21T04:34:44.461Z,101370.53
2023-04-21T04:37:13.079Z,101362.00
2023-04-21T04:39:40.198Z,101371.38
2023-04-21T04:42:09.342Z,101375.75
2023-04-21T04:44:37.174Z,101373.22
2023-04-21T04:47:05.153Z,101375.06
2023-04-21T04:49:32.548Z,101364.75
2023-04-21T04:51:59.883Z,101363.03
2023-04-21T04:54:28.916Z,101357.88
2023-04-21T04:56:57.088Z,101370.19
2023-04-21T04:59:24.259Z,101371.09
2023-04-21T05:01:52.733Z,101366.75
2023-04-21T05:04:20.578Z,101368.47
2023-04-21T05:06:48.434Z,101369.38
2023-04-21T05:09:16.255Z,101365.88
2023-04-21T05:11:43.845Z,101375.59
2023-04-21T05:14:10.907Z,101366.91
2023-04-21T05:16:38.109Z,101368.84
2023-04-21T05:19:05.183Z,101380.75
2023-04-21T05:21:33.416Z,101373.19
2023-04-21T05:24:01.019Z,101372.47
2023-04-21T05:26:29.971Z,101380.22
2023-04-21T05:28:58.382Z,101384.59
2023-04-21T05:31:26.004Z,101375.22
2023-04-21T05:33:53.880Z,101368.41
2023-04-21T05:36:20.939Z,101379.84
2023-04-21T05:38:48.338Z,101377.25
2023-04-21T05:41:16.047Z,101377.28
2023-04-21T05:43:43.124Z,101396.38
2023-04-21T05:46:11.132Z,101393.75
2023-04-21T05:48:38.623Z,101392.16
2023-04-21T05:51:15.610Z,101402.72
2023-04-21T05:53:44.108Z,101414.94
2023-04-21T05:56:12.523Z,101406.09
2023-04-21T05:58:39.643Z,101401.00
2023-04-21T06:01:06.826Z,101401.28
2023-04-21T06:03:34.139Z,101391.53
2023-04-21T06:06:03.812Z,101391.56
2023-04-21T06:08:30.981Z,101403.06
2023-04-21T06:10:58.247Z,101404.84
2023-04-21T06:13:27.084Z,101393.59
2023-04-21T06:15:55.247Z,101399.63
2023-04-21T06:18:24.801Z,101402.25
2023-04-21T06:20:53.687Z,101391.91
2023-04-21T06:23:21.247Z,101388.63
2023-04-21T06:26:00.324Z,101389.59
2023-04-21T06:28:27.490Z,101393.13
2023-04-21T06:30:54.539Z,101393.78
2023-04-21T06:33:22.826Z,101395.75
2023-04-21T06:35:49.960Z,101400.31
2023-04-21T06:38:17.621Z,101403.94
2023-04-21T06:40:44.728Z,101401.41
2023-04-21T06:43:11.836Z,101398.97
2023-04-21T06:45:38.990Z,101402.41
2023-04-21T06:48:06.276Z,101390.44
2023-04-21T06:50:33.388Z,101387.91
2023-04-21T06:53:00.417Z,101382.06
2023-04-21T06:55:27.529Z,101395.31
2023-04-21T06:57:54.569Z,101381.53
2023-04-21T07:00:23.593Z,101378.38
2023-04-21T07:02:50.768Z,101375.88
2023-04-21T07:05:18.273Z,101379.56
2023-04-21T07:07:45.300Z,101382.38
2023-04-21T07:10:12.515Z,101391.03
2023-04-21T07:12:39.678Z,101372.75
2023-04-21T07:15:07.538Z,101377.38
2023-04-21T07:17:34.753Z,101371.16
2023-04-21T07:20:03.176Z,101378.81
2023-04-21T07:22:30.246Z,101377.78
2023-04-21T07:24:57.338Z,101379.72
2023-04-21T07:27:24.375Z,101367.72
2023-04-21T07:29:51.645Z,101383.72
2023-04-21T07:32:19.768Z,101395.19
2023-04-21T07:34:48.429Z,101382.31
2023-04-21T07:37:17.183Z,101385.81
2023-04-21T07:39:44.300Z,101388.44
2023-04-21T07:42:11.853Z,101392.75
2023-04-21T07:44:39.099Z,101382.88
2023-04-21T07:47:06.454Z,101396.06
2023-04-21T07:49:33.546Z,101395.91
2023-04-21T07:52:00.767Z,101392.59
2023-04-21T07:54:28.542Z,101390.06
2023-04-21T07:56:56.247Z,101397.72
2023-04-21T07:59:23.775Z,101397.69
2023-04-21T08:01:52.711Z,101387.44
2023-04-21T08:04:20.117Z,101391.59
2023-04-21T08:06:48.150Z,101391.84
2023-04-21T08:09:15.148Z,101390.91
2023-04-21T08:11:42.165Z,101381.41
2023-04-21T08:14:11.687Z,101382.00
2023-04-21T08:16:40.383Z,101383.94
2023-04-21T08:19:08.850Z,101382.31
2023-04-21T08:21:36.540Z,101388.63
2023-04-21T08:24:07.413Z,101387.59
2023-04-21T08:26:35.812Z,101385.91
2023-04-21T08:29:04.519Z,101387.97
2023-04-21T08:31:31.895Z,101392.16
2023-04-21T08:34:03.017Z,101394.16
2023-04-21T08:36:31.691Z,101389.94
2023-04-21T08:38:59.366Z,101392.75
2023-04-21T08:41:27.274Z,101398.91
2023-04-21T08:43:54.434Z,101392.03
2023-04-21T08:46:23.899Z,101393.91
2023-04-21T08:48:52.327Z,101396.50
2023-04-21T08:51:24.788Z,101392.84
2023-04-21T08:53:53.216Z,101396.41
2023-04-21T08:56:20.281Z,101397.16
2023-04-21T08:58:47.807Z,101393.63
2023-04-21T09:01:15.069Z,101391.84
2023-04-21T09:03:42.403Z,101396.25
2023-04-21T09:06:10.472Z,101392.06
2023-04-21T09:08:42.067Z,101388.69
2023-04-21T09:11:14.199Z,101386.28
2023-04-21T09:13:42.623Z,101394.28
2023-04-21T09:16:23.993Z,101390.97
2023-04-21T09:18:51.386Z,101389.34
2023-04-21T09:21:19.789Z,101387.75
2023-04-21T09:23:52.557Z,101380.88
2023-04-21T09:26:24.044Z,101384.31
2023-04-21T09:28:53.243Z,101383.50
2023-04-21T09:31:24.849Z,101381.91
2023-04-21T09:33:58.614Z,101385.75
2023-04-21T09:36:29.301Z,101370.31
2023-04-21T09:39:29.160Z,101373.25
2023-04-21T09:41:51.242Z,101382.81
2023-04-21T09:44:19.355Z,101383.84
2023-04-21T09:46:52.913Z,101382.19
2023-04-21T09:49:26.143Z,101375.31
2023-04-21T09:54:31.834Z,101371.78
2023-04-21T09:57:04.502Z,101360.53
2023-04-21T09:59:44.803Z,101362.38
2023-04-21T10:02:12.842Z,101368.47
2023-04-21T10:04:43.910Z,101368.69
2023-04-21T10:07:11.734Z,101363.53
2023-04-21T10:09:59.352Z,101356.53
2023-04-21T10:12:27.789Z,101363.28
2023-04-21T10:14:56.339Z,101365.97
2023-04-21T10:17:25.979Z,101360.09
2023-04-21T10:19:57.898Z,101359.69
2023-04-21T10:22:35.539Z,101364.22
2023-04-21T10:25:04.794Z,101364.34
2023-04-21T10:27:34.653Z,101367.03
2023-04-21T10:30:18.274Z,101352.97
2023-04-21T10:32:46.344Z,101351.88
2023-04-21T10:35:23.578Z,101359.84
2023-04-21T10:37:52.720Z,101353.00
2023-04-21T10:43:49.596Z,101346.91
2023-04-21T10:46:34.893Z,101348.75
2023-04-21T10:49:21.279Z,101346.16
2023-04-21T10:51:58.310Z,101335.00
2023-04-21T10:54:26.037Z,101330.88
2023-04-21T10:56:57.823Z,101333.38
2023-04-21T10:59:26.809Z,101331.78
2023-04-21T11:01:54.992Z,101323.97
2023-04-21T11:04:23.652Z,101321.38
2023-04-21T11:07:10.438Z,101323.94
2023-04-21T11:09:39.037Z,101316.06
2023-04-21T11:12:11.155Z,101317.00
2023-04-21T11:14:41.051Z,101305.75
2023-04-21T11:17:12.667Z,101310.09
2023-04-21T11:19:40.316Z,101297.94
2023-04-21T11:22:07.453Z,101303.06
2023-04-21T11:24:34.734Z,101304.69
2023-04-21T11:27:02.482Z,101307.41
2023-04-21T11:29:29.760Z,101304.81
2023-04-21T11:31:58.907Z,101296.88
2023-04-21T11:34:27.038Z,101296.03
2023-04-21T11:36:55.778Z,101283.81
2023-04-21T11:39:23.980Z,101276.13
2023-04-21T11:41:52.769Z,101280.56
2023-04-21T11:44:39.837Z,101278.78
2023-04-21T11:47:18.220Z,101279.81
2023-04-21T11:49:51.982Z,101280.88
2023-04-21T11:52:22.756Z,101270.66
2023-04-21T11:54:55.189Z,101277.66
2023-04-21T11:57:24.403Z,101279.50
2023-04-21T11:59:52.910Z,101264.00
2023-04-21T12:02:28.509Z,101256.19
2023-04-21T12:05:00.182Z,101255.38
2023-04-21T12:07:29.671Z,101246.75
2023-04-21T12:09:56.781Z,101233.69
2023-04-21T12:12:24.820Z,101243.22
2023-04-21T12:14:54.022Z,101242.44
2023-04-21T12:17:21.203Z,101243.34
2023-04-21T12:19:48.594Z,101231.16
2023-04-21T12:22:18.664Z,101232.91
2023-04-21T12:24:47.495Z,101225.09
2023-04-21T12:27:14.714Z,101232.03
2023-04-21T12:29:42.583Z,101235.53
2023-04-21T12:32:10.154Z,101232.06
2023-04-21T12:34:37.586Z,101220.81
2023-04-21T12:37:04.959Z,101226.97
2023-04-21T12:39:32.279Z,101222.59
2023-04-21T12:41:59.952Z,101206.88
2023-04-21T12:44:27.184Z,101217.31
2023-04-21T12:46:54.649Z,101209.50
2023-04-21T12:49:22.648Z,101204.25
2023-04-21T12:51:49.972Z,101191.22
2023-04-21T12:54:17.580Z,101193.00
2023-04-21T12:56:44.807Z,101187.75
2023-04-21T12:59:12.170Z,101190.38
2023-04-21T13:01:41.335Z,101186.03
2023-04-21T13:04:08.940Z,101187.75
2023-04-21T13:06:38.586Z,101180.81
2023-04-21T13:09:06.333Z,101166.03
2023-04-21T13:11:33.777Z,101173.84
2023-04-21T13:14:01.083Z,101172.09
2023-04-21T13:16:30.036Z,101163.34
2023-04-21T13:18:57.729Z,101165.94
2023-04-21T13:21:24.873Z,101160.72
2023-04-21T13:23:52.761Z,101153.78
2023-04-21T13:26:19.968Z,101146.81
2023-04-21T13:28:47.097Z,101152.09
2023-04-21T13:31:14.710Z,101151.19
2023-04-21T13:33:42.115Z,101141.59
2023-04-21T13:36:12.593Z,101128.50
2023-04-21T13:38:40.874Z,101118.03
2023-04-21T13:41:08.695Z,101122.47
2023-04-21T13:43:36.201Z,101113.69
2023-04-21T13:46:03.792Z,101108.41
2023-04-21T13:48:30.874Z,101110.22
2023-04-21T13:50:57.973Z,101104.19
2023-04-21T13:53:25.337Z,101101.59
2023-04-21T13:55:54.610Z,101097.25
2023-04-21T13:58:22.867Z,101095.47
2023-04-21T14:00:50.175Z,101087.63
2023-04-21T14:03:17.387Z,101084.06
2023-04-21T14:05:44.676Z,101072.59
2023-04-21T14:08:11.881Z,101069.59
2023-04-21T14:10:38.915Z,101070.28
2023-04-21T14:13:06.291Z,101060.03
2023-04-21T14:15:33.492Z,101043.84
2023-04-21T14:18:00.960Z,101050.78
2023-04-21T14:20:28.300Z,101047.41
2023-04-21T14:22:55.529Z,101042.44
2023-04-21T14:25:23.877Z,101040.66
2023-04-21T14:27:51.084Z,101036.50
2023-04-21T14:30:18.691Z,101037.72
2023-04-21T14:32:46.200Z,101037.13
2023-04-21T14:35:13.816Z,101040.03
2023-04-21T14:37:41.635Z,101027.13
2023-04-21T14:40:09.523Z,101035.72
2023-04-21T14:42:36.587Z,101028.84
2023-04-21T14:45:04.017Z,101019.06
2023-04-21T14:47:31.347Z,101017.03
2023-04-21T14:49:58.490Z,101001.03
2023-04-21T14:52:26.980Z,101007.69
2023-04-21T14:54:54.209Z,101003.16
2023-04-21T14:57:24.348Z,101002.69
2023-04-21T14:59:53.952Z,100998.69
2023-04-21T15:02:22.222Z,101006.84
2023-04-21T15:04:50.327Z,101002.75
2023-04-21T15:07:23.287Z,100995.13
2023-04-21T15:09:51.246Z,100989.97
2023-04-21T15:12:19.051Z,100988.28
2023-04-21T15:14:46.221Z,100979.59
2023-04-21T15:17:13.556Z,100971.81
2023-04-21T15:19:40.806Z,100956.19
2023-04-21T15:22:07.996Z,100962.25
2023-04-21T15:24:35.016Z,100960.47
2023-04-21T15:27:02.699Z,100952.56
2023-04-21T15:29:30.054Z,100943.69
2023-04-21T15:31:57.188Z,100947.94
2023-04-21T15:34:24.257Z,100939.22
2023-04-21T15:36:51.400Z,100946.00
2023-04-21T15:39:18.821Z,100926.56
2023-04-21T15:41:45.918Z,100927.28
2023-04-21T15:44:13.102Z,100920.97
2023-04-21T15:46:40.505Z,100922.75
2023-04-21T15:49:07.701Z,100920.03
2023-04-21T15:51:35.155Z,100926.34
2023-04-21T15:54:04.906Z,100916.63
2023-04-21T15:56:31.963Z,100912.28
2023-04-21T15:58:59.129Z,100906.19
2023-04-21T16:01:26.393Z,100908.69
2023-04-21T16:03:54.288Z,100911.88
2023-04-21T16:06:24.236Z,100900.13
2023-04-21T16:08:51.355Z,100897.09
2023-04-21T16:11:18.722Z,100892.72
2023-04-21T16:13:45.793Z,100884.53
2023-04-21T16:16:13.132Z,100890.00
2023-04-21T16:18:40.411Z,100884.47
2023-04-21T16:21:10.565Z,100881.44
2023-04-21T16:23:38.161Z,100867.53
2023-04-21T16:26:06.285Z,100877.19
2023-04-21T16:28:33.390Z,100867.59
2023-04-21T16:31:00.495Z,100872.94
2023-04-21T16:33:27.559Z,100870.31
2023-04-21T16:35:56.830Z,100867.47
2023-04-21T16:38:24.720Z,100863.63
2023-04-21T16:40:52.959Z,100855.22
2023-04-21T16:43:20.102Z,100852.31
2023-04-21T16:45:47.323Z,100855.00
2023-04-21T16:48:14.505Z,100843.66
2023-04-21T16:50:41.993Z,100845.03
2023-04-21T16:53:09.079Z,100842.56
2023-04-21T16:55:36.282Z,100839.03
2023-04-21T16:58:03.439Z,100842.16
2023-04-21T17:00:30.578Z,100836.25
2023-04-21T17:02:57.813Z,100831.84
2023-04-21T17:05:25.044Z,100837.75
2023-04-21T17:07:53.066Z,100836.81
2023-04-21T17:10:20.267Z,100829.94
2023-04-21T17:12:47.289Z,100831.78
2023-04-21T17:15:14.331Z,100819.19
2023-04-21T17:17:43.682Z,100833.03
2023-04-21T17:20:12.736Z,100823.41
2023-04-21T17:22:40.554Z,100831.16
2023-04-21T17:25:09.100Z,100821.50
2023-04-21T17:27:37.549Z,100822.94
2023-04-21T17:30:05.751Z,100823.25
2023-04-21T17:32:34.296Z,100820.06
2023-04-21T17:35:02.908Z,100817.66
2023-04-21T17:37:30.445Z,100806.50
2023-04-21T17:39:59.262Z,100798.81
2023-04-21T17:42:28.937Z,100787.50
2023-04-21T17:44:55.967Z,100768.28
2023-04-21T17:47:24.272Z,100769.06
2023-04-21T17:49:51.410Z,100769.16
2023-04-21T17:52:19.117Z,100776.13
2023-04-21T17:54:46.854Z,100780.44
2023-04-21T17:57:13.967Z,100775.28
2023-04-21T17:59:41.147Z,100772.69
2023-04-21T18:02:08.270Z,100770.97
2023-04-21T18:04:36.370Z,100782.47
2023-04-21T18:07:03.901Z,100788.63
2023-04-21T18:09:31.678Z,100807.84
2023-04-21T18:11:58.988Z,100835.84
2023-04-21T18:14:26.649Z,100863.88
2023-04-21T18:16:54.215Z,100875.44
2023-04-21T18:19:21.280Z,100896.34
2023-04-21T18:21:48.823Z,100846.59
2023-04-21T18:24:15.884Z,100814.25
2023-04-21T18:26:43.245Z,100845.13
2023-04-21T18:29:10.433Z,100893.25
2023-04-21T18:31:37.591Z,100880.81
2023-04-21T18:34:05.965Z,100889.31
2023-04-21T18:36:33.508Z,100894.97
2023-04-21T18:39:01.637Z,100866.44
2023-04-21T18:41:28.679Z,100863.78
2023-04-21T18:43:55.790Z,100857.63
2023-04-21T18:46:24.237Z,100854.25
2023-04-21T18:48:51.343Z,100841.22
2023-04-21T18:51:18.682Z,100838.63
2023-04-21T18:53:46.328Z,100849.97
2023-04-21T18:56:13.485Z,100837.00
2023-04-21T18:58:40.682Z,100826.59
2023-04-21T19:01:08.242Z,100828.25
2023-04-21T19:03:35.547Z,100830.84
2023-04-21T19:06:02.930Z,100829.09
2023-04-21T19:08:41.452Z,100822.16
2023-04-21T19:11:14.619Z,100822.16
2023-04-21T19:13:41.735Z,100816.06
2023-04-21T19:16:11.363Z,100814.31
2023-04-21T19:18:38.619Z,100819.56
2023-04-21T19:21:07.036Z,100803.09
2023-04-21T19:23:34.138Z,100801.25
2023-04-21T19:26:04.642Z,100796.88
2023-04-21T19:28:32.222Z,100790.84
2023-04-21T19:30:59.444Z,100797.81
2023-04-21T19:33:26.453Z,100779.59
2023-04-21T19:35:57.075Z,100783.97
2023-04-21T19:38:31.328Z,100777.97
2023-04-21T19:40:58.373Z,100777.00
2023-04-21T19:43:25.694Z,100768.31
2023-04-21T19:45:54.113Z,100770.84
2023-04-21T19:48:22.451Z,100770.88
2023-04-21T19:50:49.723Z,100774.38
2023-04-21T19:53:17.420Z,100777.88
2023-04-21T19:55:45.727Z,100779.59
2023-04-21T19:58:13.212Z,100769.25
2023-04-21T20:00:47.633Z,100769.25
2023-04-21T20:03:15.038Z,100767.53
2023-04-21T20:05:42.576Z,100768.44
2023-04-21T20:08:09.760Z,100773.63
2023-04-21T20:10:37.849Z,100767.59
2023-04-21T20:13:08.642Z,100770.16
2023-04-21T20:15:35.732Z,100767.53
2023-04-21T20:18:03.109Z,100777.91
2023-04-21T20:20:30.791Z,100766.63
2023-04-21T20:22:57.870Z,100766.56
2023-04-21T20:25:24.952Z,100758.72
2023-04-21T20:27:52.975Z,100755.22
2023-04-21T20:30:20.836Z,100756.03
2023-04-21T20:33:00.204Z,100746.47
2023-04-21T20:35:30.602Z,100734.22
2023-04-21T20:37:59.706Z,100748.16
2023-04-21T20:40:26.752Z,100750.72
2023-04-21T20:42:53.833Z,100760.13
2023-04-21T20:45:23.126Z,100758.28
2023-04-21T20:47:54.713Z,100754.78
2023-04-21T20:50:23.687Z,100760.00
2023-04-21T20:52:51.014Z,100765.13
2023-04-21T20:55:18.515Z,100791.88
2023-04-21T20:57:45.662Z,100795.31
2023-04-21T21:00:13.755Z,100796.16
2023-04-21T21:02:41.344Z,100830.56
2023-04-21T21:05:08.635Z,100843.28
2023-04-21T21:07:35.734Z,100856.88
2023-04-21T21:10:03.771Z,100881.75
2023-04-21T21:12:30.844Z,100903.91
2023-04-21T21:14:57.962Z,100913.22
2023-04-21T21:17:25.195Z,100913.91
2023-04-21T21:19:53.151Z,100904.31
2023-04-21T21:22:20.307Z,100912.03
2023-04-21T21:24:47.532Z,100918.00
2023-04-21T21:27:14.566Z,100911.22
2023-04-21T21:29:42.347Z,100922.47
2023-04-21T21:32:09.480Z,100910.38
2023-04-21T21:34:36.736Z,100910.38
2023-04-21T21:37:04.304Z,100911.31
2023-04-21T21:39:31.377Z,100888.13
2023-04-21T21:41:58.403Z,100898.72
2023-04-21T21:44:25.603Z,100881.44
2023-04-21T21:46:53.704Z,100883.28
2023-04-21T21:49:22.280Z,100861.75
2023-04-21T21:51:49.811Z,100873.00
2023-04-21T21:54:17.414Z,100859.16
2023-04-21T21:56:44.773Z,100847.91
2023-04-21T21:59:11.855Z,100850.44
2023-04-21T22:01:39.072Z,100841.78
2023-04-21T22:04:07.359Z,100838.28
2023-04-21T22:06:35.010Z,100826.22
2023-04-21T22:09:02.936Z,100821.06
2023-04-21T22:11:30.314Z,100808.13
2023-04-21T22:14:00.617Z,100802.13
2023-04-21T22:16:32.817Z,100802.97
2023-04-21T22:19:03.345Z,100798.53
2023-04-21T22:21:31.638Z,100800.16
2023-04-21T22:23:58.710Z,100794.09
2023-04-21T22:26:25.749Z,100801.81
2023-04-21T22:28:54.772Z,100805.28
2023-04-21T22:31:23.200Z,100805.25
2023-04-21T22:33:50.263Z,100810.44
2023-04-21T22:36:17.732Z,100806.91
2023-04-21T22:38:45.729Z,100812.06
2023-04-21T22:41:13.908Z,100799.88
2023-04-21T22:43:41.125Z,100798.88
2023-04-21T22:46:08.262Z,100804.03
2023-04-21T22:48:37.087Z,100790.91
2023-04-21T22:51:05.645Z,100805.56
2023-04-21T22:53:33.476Z,100803.72
2023-04-21T22:56:00.637Z,100798.44
2023-04-21T22:58:27.678Z,100801.84
2023-04-21T23:00:54.825Z,100792.28
2023-04-21T23:03:23.457Z,100794.75
2023-04-21T23:05:50.885Z,100802.44
2023-04-21T23:08:17.991Z,100795.44
2023-04-21T23:10:45.076Z,100799.59
2023-04-21T23:13:12.506Z,100795.22
2023-04-21T23:15:39.570Z,100785.59
2023-04-21T23:18:06.695Z,100786.38
2023-04-21T23:20:33.911Z,100779.38
2023-04-21T23:23:00.916Z,100782.75
2023-04-21T23:25:28.003Z,100780.97
2023-04-21T23:27:55.176Z,100777.41
2023-04-21T23:30:23.005Z,100785.13
2023-04-21T23:32:50.563Z,100785.94
2023-04-21T23:35:17.930Z,100788.44
2023-04-21T23:37:46.430Z,100784.91
2023-04-21T23:40:13.735Z,100777.91
2023-04-21T23:42:40.994Z,100780.34
2023-04-21T23:45:08.701Z,100778.56
2023-04-21T23:47:35.837Z,100789.81
2023-04-21T23:50:03.767Z,100789.72
2023-04-21T23:52:31.350Z,100787.88
2023-04-21T23:54:58.456Z,100787.84
2023-04-21T23:57:25.922Z,100778.25
2023-04-21T23:59:54.271Z,100772.22
